sensor_id;sensor_type;location;lat;lon;timestamp;pressure;altitude;pressure_sealevel;temperature;humidity
79527;BME280;68974;47.754;-3.364;2024-01-30T00:00:40;102547.38;;;10.07;88.40
79527;BME280;68974;47.754;-3.364;2024-01-30T00:03:06;102550.00;;;10.02;88.51
79527;BME280;68974;47.754;-3.364;2024-01-30T00:05:31;102550.34;;;9.94;88.61
79527;BME280;68974;47.754;-3.364;2024-01-30T00:07:57;102557.22;;;9.85;88.55
79527;BME280;68974;47.754;-3.364;2024-01-30T00:10:22;102553.28;;;9.81;88.12
79527;BME280;68974;47.754;-3.364;2024-01-30T00:12:48;102561.00;;;9.72;87.80
79527;BME280;68974;47.754;-3.364;2024-01-30T00:15:13;102570.38;;;9.65;88.37
79527;BME280;68974;47.754;-3.364;2024-01-30T00:17:38;102560.38;;;9.70;87.21
79527;BME280;68974;47.754;-3.364;2024-01-30T00:20:04;102564.88;;;9.65;87.45
79527;BME280;68974;47.754;-3.364;2024-01-30T00:22:31;102570.84;;;9.62;87.33
79527;BME280;68974;47.754;-3.364;2024-01-30T00:24:57;102574.09;;;9.70;86.49
79527;BME280;68974;47.754;-3.364;2024-01-30T00:27:22;102584.53;;;9.80;86.58
79527;BME280;68974;47.754;-3.364;2024-01-30T00:29:48;102578.66;;;9.76;86.18
79527;BME280;68974;47.754;-3.364;2024-01-30T00:32:13;102583.19;;;9.71;85.45
79527;BME280;68974;47.754;-3.364;2024-01-30T00:34:38;102582.41;;;9.64;85.53
79527;BME280;68974;47.754;-3.364;2024-01-30T00:37:04;102581.34;;;9.65;84.60
79527;BME280;68974;47.754;-3.364;2024-01-30T00:39:29;102583.78;;;9.54;84.35
79527;BME280;68974;47.754;-3.364;2024-01-30T00:41:55;102595.81;;;9.53;84.04
79527;BME280;68974;47.754;-3.364;2024-01-30T00:44:20;102599.50;;;9.66;83.14
79527;BME280;68974;47.754;-3.364;2024-01-30T00:46:46;102593.53;;;9.69;83.25
79527;BME280;68974;47.754;-3.364;2024-01-30T00:49:11;102597.34;;;9.68;83.39
79527;BME280;68974;47.754;-3.364;2024-01-30T00:51:37;102596.53;;;9.67;83.75
79527;BME280;68974;47.754;-3.364;2024-01-30T00:54:02;102595.22;;;9.70;83.52
79527;BME280;68974;47.754;-3.364;2024-01-30T00:56:28;102601.16;;;9.67;84.04
79527;BME280;68974;47.754;-3.364;2024-01-30T00:58:54;102594.00;;;9.66;84.38
79527;BME280;68974;47.754;-3.364;2024-01-30T01:01:19;102590.72;;;9.75;83.75
79527;BME280;68974;47.754;-3.364;2024-01-30T01:03:45;102577.84;;;9.76;83.21
79527;BME280;68974;47.754;-3.364;2024-01-30T01:06:10;102587.75;;;9.77;82.88
79527;BME280;68974;47.754;-3.364;2024-01-30T01:08:36;102602.38;;;9.71;83.38
79527;BME280;68974;47.754;-3.364;2024-01-30T01:11:02;102600.41;;;9.60;83.84
79527;BME280;68974;47.754;-3.364;2024-01-30T01:13:28;102615.28;;;9.52;84.14
79527;BME280;68974;47.754;-3.364;2024-01-30T01:15:54;102616.41;;;9.44;84.49
79527;BME280;68974;47.754;-3.364;2024-01-30T01:18:20;102616.72;;;9.36;84.72
79527;BME280;68974;47.754;-3.364;2024-01-30T01:20:45;102616.88;;;9.41;84.67
79527;BME280;68974;47.754;-3.364;2024-01-30T01:23:11;102604.19;;;9.58;84.48
79527;BME280;68974;47.754;-3.364;2024-01-30T01:25:36;102612.13;;;9.48;84.08
79527;BME280;68974;47.754;-3.364;2024-01-30T01:28:02;102616.56;;;9.31;84.98
79527;BME280;68974;47.754;-3.364;2024-01-30T01:30:28;102618.97;;;9.21;85.28
79527;BME280;68974;47.754;-3.364;2024-01-30T01:32:54;102610.97;;;9.20;85.58
79527;BME280;68974;47.754;-3.364;2024-01-30T01:35:22;102613.63;;;9.08;85.98
79527;BME280;68974;47.754;-3.364;2024-01-30T01:37:49;102608.22;;;9.01;86.44
79527;BME280;68974;47.754;-3.364;2024-01-30T01:40:21;102615.22;;;8.97;86.94
79527;BME280;68974;47.754;-3.364;2024-01-30T01:42:47;102620.97;;;8.89;87.50
79527;BME280;68974;47.754;-3.364;2024-01-30T01:45:13;102618.88;;;8.85;87.21
79527;BME280;68974;47.754;-3.364;2024-01-30T01:47:39;102623.59;;;8.78;87.51
79527;BME280;68974;47.754;-3.364;2024-01-30T01:50:05;102629.97;;;8.72;87.75
79527;BME280;68974;47.754;-3.364;2024-01-30T01:52:31;102633.38;;;8.67;88.11
79527;BME280;68974;47.754;-3.364;2024-01-30T01:54:56;102635.91;;;8.68;88.45
79527;BME280;68974;47.754;-3.364;2024-01-30T01:57:22;102624.94;;;8.68;88.25
79527;BME280;68974;47.754;-3.364;2024-01-30T01:59:47;102636.78;;;8.62;88.33
79527;BME280;68974;47.754;-3.364;2024-01-30T02:02:14;102626.72;;;8.56;88.92
79527;BME280;68974;47.754;-3.364;2024-01-30T02:04:42;102636.44;;;8.52;88.78
79527;BME280;68974;47.754;-3.364;2024-01-30T02:07:08;102642.97;;;8.51;88.95
79527;BME280;68974;47.754;-3.364;2024-01-30T02:09:34;102634.75;;;8.51;89.13
79527;BME280;68974;47.754;-3.364;2024-01-30T02:12:00;102630.75;;;8.79;88.63
79527;BME280;68974;47.754;-3.364;2024-01-30T02:14:25;102631.81;;;8.78;88.24
79527;BME280;68974;47.754;-3.364;2024-01-30T02:16:51;102634.84;;;8.69;88.53
79527;BME280;68974;47.754;-3.364;2024-01-30T02:19:16;102636.16;;;8.60;88.62
79527;BME280;68974;47.754;-3.364;2024-01-30T02:21:42;102625.81;;;8.62;88.61
79527;BME280;68974;47.754;-3.364;2024-01-30T02:24:07;102631.34;;;8.56;88.85
79527;BME280;68974;47.754;-3.364;2024-01-30T02:26:33;102628.03;;;8.47;88.97
79527;BME280;68974;47.754;-3.364;2024-01-30T02:28:58;102619.81;;;8.47;89.37
79527;BME280;68974;47.754;-3.364;2024-01-30T02:31:25;102636.91;;;8.43;88.93
79527;BME280;68974;47.754;-3.364;2024-01-30T02:33:50;102639.03;;;8.41;89.51
79527;BME280;68974;47.754;-3.364;2024-01-30T02:36:16;102636.94;;;8.36;89.73
79527;BME280;68974;47.754;-3.364;2024-01-30T02:38:41;102633.72;;;8.46;89.81
79527;BME280;68974;47.754;-3.364;2024-01-30T02:41:07;102623.91;;;8.38;89.23
79527;BME280;68974;47.754;-3.364;2024-01-30T02:43:32;102635.06;;;8.37;90.13
79527;BME280;68974;47.754;-3.364;2024-01-30T02:45:58;102632.97;;;8.32;90.09
79527;BME280;68974;47.754;-3.364;2024-01-30T02:48:25;102637.00;;;8.30;90.00
79527;BME280;68974;47.754;-3.364;2024-01-30T02:50:50;102652.19;;;8.25;90.56
79527;BME280;68974;47.754;-3.364;2024-01-30T02:53:15;102655.13;;;8.24;90.62
79527;BME280;68974;47.754;-3.364;2024-01-30T02:55:41;102667.75;;;8.25;90.67
79527;BME280;68974;47.754;-3.364;2024-01-30T02:58:06;102675.53;;;8.21;90.83
79527;BME280;68974;47.754;-3.364;2024-01-30T03:00:32;102676.63;;;8.20;91.03
79527;BME280;68974;47.754;-3.364;2024-01-30T03:02:57;102683.81;;;8.15;90.67
79527;BME280;68974;47.754;-3.364;2024-01-30T03:05:23;102678.75;;;8.12;90.76
79527;BME280;68974;47.754;-3.364;2024-01-30T03:07:48;102679.19;;;8.09;90.87
79527;BME280;68974;47.754;-3.364;2024-01-30T03:10:14;102670.81;;;8.04;90.84
79527;BME280;68974;47.754;-3.364;2024-01-30T03:12:39;102676.72;;;8.01;90.83
79527;BME280;68974;47.754;-3.364;2024-01-30T03:15:05;102680.06;;;8.03;91.23
79527;BME280;68974;47.754;-3.364;2024-01-30T03:17:30;102685.13;;;7.99;91.36
79527;BME280;68974;47.754;-3.364;2024-01-30T03:19:56;102679.28;;;7.96;91.34
79527;BME280;68974;47.754;-3.364;2024-01-30T03:22:21;102681.38;;;7.94;91.63
79527;BME280;68974;47.754;-3.364;2024-01-30T03:24:46;102684.09;;;7.94;91.87
79527;BME280;68974;47.754;-3.364;2024-01-30T03:27:12;102677.19;;;7.91;91.80
79527;BME280;68974;47.754;-3.364;2024-01-30T03:29:37;102695.25;;;7.92;91.89
79527;BME280;68974;47.754;-3.364;2024-01-30T03:32:03;102692.75;;;7.91;92.00
79527;BME280;68974;47.754;-3.364;2024-01-30T03:34:29;102698.00;;;7.92;92.23
79527;BME280;68974;47.754;-3.364;2024-01-30T03:36:55;102705.81;;;7.89;92.06
79527;BME280;68974;47.754;-3.364;2024-01-30T03:39:20;102710.88;;;7.85;92.11
79527;BME280;68974;47.754;-3.364;2024-01-30T03:41:45;102704.56;;;7.84;91.98
79527;BME280;68974;47.754;-3.364;2024-01-30T03:44:11;102706.66;;;7.82;92.03
79527;BME280;68974;47.754;-3.364;2024-01-30T03:46:37;102702.28;;;7.81;91.93
79527;BME280;68974;47.754;-3.364;2024-01-30T03:49:02;102709.19;;;7.84;92.12
79527;BME280;68974;47.754;-3.364;2024-01-30T03:51:28;102700.78;;;7.86;92.06
79527;BME280;68974;47.754;-3.364;2024-01-30T03:53:53;102695.09;;;7.80;92.01
79527;BME280;68974;47.754;-3.364;2024-01-30T03:56:19;102702.06;;;7.76;91.97
79527;BME280;68974;47.754;-3.364;2024-01-30T03:58:44;102702.91;;;7.70;92.36
79527;BME280;68974;47.754;-3.364;2024-01-30T04:01:14;102700.00;;;7.65;92.44
79527;BME280;68974;47.754;-3.364;2024-01-30T04:03:40;102710.28;;;7.63;92.60
79527;BME280;68974;47.754;-3.364;2024-01-30T04:06:06;102706.09;;;7.61;92.70
79527;BME280;68974;47.754;-3.364;2024-01-30T04:08:31;102709.25;;;7.58;92.88
79527;BME280;68974;47.754;-3.364;2024-01-30T04:10:57;102712.22;;;7.56;92.96
79527;BME280;68974;47.754;-3.364;2024-01-30T04:13:23;102717.25;;;7.53;92.73
79527;BME280;68974;47.754;-3.364;2024-01-30T04:15:48;102719.56;;;7.49;93.07
79527;BME280;68974;47.754;-3.364;2024-01-30T04:18:14;102720.22;;;7.51;93.30
79527;BME280;68974;47.754;-3.364;2024-01-30T04:20:39;102737.22;;;7.53;93.04
79527;BME280;68974;47.754;-3.364;2024-01-30T04:23:04;102732.84;;;7.52;93.69
79527;BME280;68974;47.754;-3.364;2024-01-30T04:25:30;102727.97;;;7.54;93.28
79527;BME280;68974;47.754;-3.364;2024-01-30T04:27:55;102726.72;;;7.50;93.36
79527;BME280;68974;47.754;-3.364;2024-01-30T04:30:21;102726.09;;;7.48;93.54
79527;BME280;68974;47.754;-3.364;2024-01-30T04:32:46;102721.06;;;7.45;93.55
79527;BME280;68974;47.754;-3.364;2024-01-30T04:35:12;102728.63;;;7.43;93.49
79527;BME280;68974;47.754;-3.364;2024-01-30T04:37:37;102744.63;;;7.39;93.54
79527;BME280;68974;47.754;-3.364;2024-01-30T04:40:03;102736.63;;;7.38;93.84
79527;BME280;68974;47.754;-3.364;2024-01-30T04:42:30;102738.31;;;7.39;93.75
79527;BME280;68974;47.754;-3.364;2024-01-30T04:44:55;102730.09;;;7.39;94.08
79527;BME280;68974;47.754;-3.364;2024-01-30T04:47:21;102732.19;;;7.44;93.62
79527;BME280;68974;47.754;-3.364;2024-01-30T04:49:46;102741.25;;;7.44;93.62
79527;BME280;68974;47.754;-3.364;2024-01-30T04:52:12;102742.94;;;7.45;93.48
79527;BME280;68974;47.754;-3.364;2024-01-30T04:54:37;102743.78;;;7.39;93.33
79527;BME280;68974;47.754;-3.364;2024-01-30T04:57:03;102738.31;;;7.32;93.41
79527;BME280;68974;47.754;-3.364;2024-01-30T04:59:28;102749.47;;;7.31;93.64
79527;BME280;68974;47.754;-3.364;2024-01-30T05:01:54;102759.75;;;7.29;93.54
79527;BME280;68974;47.754;-3.364;2024-01-30T05:04:20;102760.19;;;7.26;93.63
79527;BME280;68974;47.754;-3.364;2024-01-30T05:06:46;102767.13;;;7.22;93.75
79527;BME280;68974;47.754;-3.364;2024-01-30T05:09:11;102759.31;;;7.19;93.59
79527;BME280;68974;47.754;-3.364;2024-01-30T05:11:38;102764.38;;;7.15;93.57
79527;BME280;68974;47.754;-3.364;2024-01-30T05:14:04;102767.75;;;7.11;93.72
79527;BME280;68974;47.754;-3.364;2024-01-30T05:16:30;102757.25;;;7.08;93.71
79527;BME280;68974;47.754;-3.364;2024-01-30T05:18:55;102759.31;;;7.06;93.67
79527;BME280;68974;47.754;-3.364;2024-01-30T05:21:20;102760.38;;;7.05;93.96
79527;BME280;68974;47.754;-3.364;2024-01-30T05:23:46;102770.25;;;7.06;93.98
79527;BME280;68974;47.754;-3.364;2024-01-30T05:26:11;102761.63;;;7.09;94.08
79527;BME280;68974;47.754;-3.364;2024-01-30T05:28:37;102763.56;;;7.08;94.38
79527;BME280;68974;47.754;-3.364;2024-01-30T05:31:03;102767.97;;;7.03;93.80
79527;BME280;68974;47.754;-3.364;2024-01-30T05:33:28;102785.41;;;7.02;93.95
79527;BME280;68974;47.754;-3.364;2024-01-30T05:35:54;102791.28;;;6.99;94.03
79527;BME280;68974;47.754;-3.364;2024-01-30T05:38:20;102789.16;;;7.01;93.83
79527;BME280;68974;47.754;-3.364;2024-01-30T05:40:45;102789.16;;;7.01;93.81
79527;BME280;68974;47.754;-3.364;2024-01-30T05:43:11;102785.19;;;7.03;94.34
79527;BME280;68974;47.754;-3.364;2024-01-30T05:45:37;102794.25;;;7.04;93.93
79527;BME280;68974;47.754;-3.364;2024-01-30T05:48:04;102793.81;;;7.07;94.00
79527;BME280;68974;47.754;-3.364;2024-01-30T05:50:29;102802.63;;;7.09;93.19
79527;BME280;68974;47.754;-3.364;2024-01-30T05:52:55;102786.88;;;7.11;93.09
79527;BME280;68974;47.754;-3.364;2024-01-30T05:55:20;102803.47;;;7.03;92.78
79527;BME280;68974;47.754;-3.364;2024-01-30T05:57:46;102809.34;;;6.93;93.14
79527;BME280;68974;47.754;-3.364;2024-01-30T06:00:12;102811.63;;;6.89;92.87
79527;BME280;68974;47.754;-3.364;2024-01-30T06:02:38;102820.06;;;6.88;93.45
79527;BME280;68974;47.754;-3.364;2024-01-30T06:05:03;102812.06;;;6.86;93.56
79527;BME280;68974;47.754;-3.364;2024-01-30T06:07:29;102818.78;;;6.84;93.55
79527;BME280;68974;47.754;-3.364;2024-01-30T06:09:54;102826.13;;;6.83;93.51
79527;BME280;68974;47.754;-3.364;2024-01-30T06:12:20;102832.88;;;6.87;93.38
79527;BME280;68974;47.754;-3.364;2024-01-30T06:14:45;102830.75;;;6.89;92.76
79527;BME280;68974;47.754;-3.364;2024-01-30T06:17:10;102842.09;;;6.86;93.20
79527;BME280;68974;47.754;-3.364;2024-01-30T06:19:38;102829.47;;;6.85;93.55
79527;BME280;68974;47.754;-3.364;2024-01-30T06:22:04;102830.75;;;6.89;93.05
79527;BME280;68974;47.754;-3.364;2024-01-30T06:24:29;102837.06;;;6.90;92.45
79527;BME280;68974;47.754;-3.364;2024-01-30T06:26:55;102842.94;;;6.87;92.60
79527;BME280;68974;47.754;-3.364;2024-01-30T06:29:20;102836.84;;;6.85;92.42
79527;BME280;68974;47.754;-3.364;2024-01-30T06:31:46;102837.47;;;6.87;92.58
79527;BME280;68974;47.754;-3.364;2024-01-30T06:34:11;102840.88;;;6.95;92.14
79527;BME280;68974;47.754;-3.364;2024-01-30T06:36:37;102834.16;;;6.98;91.94
79527;BME280;68974;47.754;-3.364;2024-01-30T06:39:03;102842.56;;;6.96;91.69
79527;BME280;68974;47.754;-3.364;2024-01-30T06:41:29;102837.50;;;6.93;91.79
79527;BME280;68974;47.754;-3.364;2024-01-30T06:43:55;102834.13;;;6.91;91.62
79527;BME280;68974;47.754;-3.364;2024-01-30T06:46:20;102843.78;;;6.94;91.43
79527;BME280;68974;47.754;-3.364;2024-01-30T06:48:46;102841.06;;;6.87;91.49
79527;BME280;68974;47.754;-3.364;2024-01-30T06:51:11;102842.97;;;7.00;90.87
79527;BME280;68974;47.754;-3.364;2024-01-30T06:53:37;102838.13;;;6.95;90.82
79527;BME280;68974;47.754;-3.364;2024-01-30T06:56:03;102841.88;;;6.81;90.95
79527;BME280;68974;47.754;-3.364;2024-01-30T06:58:29;102853.00;;;6.73;91.14
79527;BME280;68974;47.754;-3.364;2024-01-30T07:00:55;102850.03;;;6.68;91.32
79527;BME280;68974;47.754;-3.364;2024-01-30T07:03:21;102852.09;;;6.66;91.41
79527;BME280;68974;47.754;-3.364;2024-01-30T07:05:46;102853.38;;;6.70;91.32
79527;BME280;68974;47.754;-3.364;2024-01-30T07:08:12;102858.47;;;6.73;91.29
79527;BME280;68974;47.754;-3.364;2024-01-30T07:10:38;102864.53;;;6.69;90.97
79527;BME280;68974;47.754;-3.364;2024-01-30T07:13:03;102858.84;;;6.64;90.83
79527;BME280;68974;47.754;-3.364;2024-01-30T07:15:31;102868.25;;;6.61;91.25
79527;BME280;68974;47.754;-3.364;2024-01-30T07:17:56;102861.09;;;6.60;90.84
79527;BME280;68974;47.754;-3.364;2024-01-30T07:20:22;102868.47;;;6.60;91.35
79527;BME280;68974;47.754;-3.364;2024-01-30T07:22:47;102869.72;;;6.57;91.39
79527;BME280;68974;47.754;-3.364;2024-01-30T07:25:13;102864.25;;;6.57;91.09
79527;BME280;68974;47.754;-3.364;2024-01-30T07:27:38;102874.34;;;6.57;90.68
79527;BME280;68974;47.754;-3.364;2024-01-30T07:30:04;102880.22;;;6.53;90.83
79527;BME280;68974;47.754;-3.364;2024-01-30T07:32:30;102878.31;;;6.54;90.55
79527;BME280;68974;47.754;-3.364;2024-01-30T07:34:57;102889.00;;;6.49;91.11
79527;BME280;68974;47.754;-3.364;2024-01-30T07:37:22;102888.97;;;6.42;91.10
79527;BME280;68974;47.754;-3.364;2024-01-30T07:39:47;102882.41;;;6.37;91.60
79527;BME280;68974;47.754;-3.364;2024-01-30T07:42:13;102889.31;;;6.33;91.39
79527;BME280;68974;47.754;-3.364;2024-01-30T07:44:38;102900.44;;;6.31;92.03
79527;BME280;68974;47.754;-3.364;2024-01-30T07:47:04;102893.34;;;6.37;91.90
79527;BME280;68974;47.754;-3.364;2024-01-30T07:49:30;102898.16;;;6.35;91.93
79527;BME280;68974;47.754;-3.364;2024-01-30T07:51:56;102893.50;;;6.29;91.99
79527;BME280;68974;47.754;-3.364;2024-01-30T07:54:21;102919.09;;;6.28;91.90
79527;BME280;68974;47.754;-3.364;2024-01-30T07:56:47;102921.25;;;6.32;91.81
79527;BME280;68974;47.754;-3.364;2024-01-30T07:59:12;102917.41;;;6.27;91.53
79527;BME280;68974;47.754;-3.364;2024-01-30T08:01:38;102924.16;;;6.31;91.63
79527;BME280;68974;47.754;-3.364;2024-01-30T08:04:03;102923.56;;;6.35;90.99
79527;BME280;68974;47.754;-3.364;2024-01-30T08:06:29;102928.81;;;6.37;91.07
79527;BME280;68974;47.754;-3.364;2024-01-30T08:08:55;102934.94;;;6.39;89.79
79527;BME280;68974;47.754;-3.364;2024-01-30T08:11:21;102934.28;;;6.37;90.09
79527;BME280;68974;47.754;-3.364;2024-01-30T08:13:55;102934.69;;;6.34;90.56
79527;BME280;68974;47.754;-3.364;2024-01-30T08:16:20;102951.09;;;6.40;90.37
79527;BME280;68974;47.754;-3.364;2024-01-30T08:18:46;102948.19;;;6.42;90.58
79527;BME280;68974;47.754;-3.364;2024-01-30T08:21:11;102942.28;;;6.38;90.29
79527;BME280;68974;47.754;-3.364;2024-01-30T08:23:38;102956.59;;;6.47;90.61
79527;BME280;68974;47.754;-3.364;2024-01-30T08:26:04;102960.00;;;6.49;89.76
79527;BME280;68974;47.754;-3.364;2024-01-30T08:28:30;102958.94;;;6.50;89.14
79527;BME280;68974;47.754;-3.364;2024-01-30T08:30:55;102962.06;;;6.47;89.62
79527;BME280;68974;47.754;-3.364;2024-01-30T08:33:21;102958.72;;;6.45;89.32
79527;BME280;68974;47.754;-3.364;2024-01-30T08:35:46;102958.94;;;6.50;89.12
79527;BME280;68974;47.754;-3.364;2024-01-30T08:38:12;102960.06;;;6.62;87.82
79527;BME280;68974;47.754;-3.364;2024-01-30T08:40:37;102958.81;;;6.65;87.46
79527;BME280;68974;47.754;-3.364;2024-01-30T08:43:03;102965.47;;;6.49;87.65
79527;BME280;68974;47.754;-3.364;2024-01-30T08:45:29;102966.31;;;6.49;87.57
79527;BME280;68974;47.754;-3.364;2024-01-30T08:47:55;102975.56;;;6.55;88.27
79527;BME280;68974;47.754;-3.364;2024-01-30T08:50:21;102971.22;;;6.67;87.96
79527;BME280;68974;47.754;-3.364;2024-01-30T08:52:46;102975.47;;;6.76;87.55
79527;BME280;68974;47.754;-3.364;2024-01-30T08:55:12;102978.69;;;6.86;87.07
79527;BME280;68974;47.754;-3.364;2024-01-30T08:57:37;102983.75;;;6.89;86.96
79527;BME280;68974;47.754;-3.364;2024-01-30T09:00:04;102988.88;;;7.06;86.80
79527;BME280;68974;47.754;-3.364;2024-01-30T09:02:32;102985.97;;;7.14;86.67
79527;BME280;68974;47.754;-3.364;2024-01-30T09:04:57;102982.66;;;7.25;85.95
79527;BME280;68974;47.754;-3.364;2024-01-30T09:07:23;102999.94;;;7.32;86.40
79527;BME280;68974;47.754;-3.364;2024-01-30T09:09:48;102988.59;;;7.42;86.46
79527;BME280;68974;47.754;-3.364;2024-01-30T09:12:14;102994.75;;;7.57;85.18
79527;BME280;68974;47.754;-3.364;2024-01-30T09:14:40;103004.22;;;7.67;84.69
79527;BME280;68974;47.754;-3.364;2024-01-30T09:17:06;103008.28;;;7.84;84.38
79527;BME280;68974;47.754;-3.364;2024-01-30T09:19:31;102997.34;;;8.04;83.11
79527;BME280;68974;47.754;-3.364;2024-01-30T09:21:57;102996.28;;;8.12;83.00
79527;BME280;68974;47.754;-3.364;2024-01-30T09:24:23;102993.56;;;8.12;81.33
79527;BME280;68974;47.754;-3.364;2024-01-30T09:26:48;103006.84;;;8.28;82.14
79527;BME280;68974;47.754;-3.364;2024-01-30T09:29:14;103000.56;;;8.34;81.87
79527;BME280;68974;47.754;-3.364;2024-01-30T09:31:39;103005.56;;;8.50;81.78
79527;BME280;68974;47.754;-3.364;2024-01-30T09:34:08;103010.22;;;8.56;82.30
79527;BME280;68974;47.754;-3.364;2024-01-30T09:36:33;103015.66;;;8.83;81.94
79527;BME280;68974;47.754;-3.364;2024-01-30T09:38:58;103000.53;;;10.00;81.39
79527;BME280;68974;47.754;-3.364;2024-01-30T09:41:24;103005.34;;;10.98;79.25
79527;BME280;68974;47.754;-3.364;2024-01-30T09:43:51;103005.97;;;12.07;73.44
79527;BME280;68974;47.754;-3.364;2024-01-30T09:46:18;103010.22;;;13.03;71.36
79527;BME280;68974;47.754;-3.364;2024-01-30T09:48:46;103001.78;;;13.33;67.23
79527;BME280;68974;47.754;-3.364;2024-01-30T09:51:14;103004.53;;;13.33;64.49
79527;BME280;68974;47.754;-3.364;2024-01-30T09:53:42;103009.56;;;13.36;65.10
79527;BME280;68974;47.754;-3.364;2024-01-30T09:56:09;103020.03;;;13.11;65.20
79527;BME280;68974;47.754;-3.364;2024-01-30T09:58:34;103017.28;;;13.11;65.51
79527;BME280;68974;47.754;-3.364;2024-01-30T10:00:59;103017.19;;;12.94;64.46
79527;BME280;68974;47.754;-3.364;2024-01-30T10:03:25;103025.84;;;12.74;64.35
79527;BME280;68974;47.754;-3.364;2024-01-30T10:05:51;103028.09;;;12.77;64.78
79527;BME280;68974;47.754;-3.364;2024-01-30T10:08:20;103035.91;;;12.80;64.09
79527;BME280;68974;47.754;-3.364;2024-01-30T10:10:47;103032.56;;;12.55;65.15
79527;BME280;68974;47.754;-3.364;2024-01-30T10:13:12;103049.06;;;11.90;66.94
79527;BME280;68974;47.754;-3.364;2024-01-30T10:15:38;103042.06;;;11.40;68.27
79527;BME280;68974;47.754;-3.364;2024-01-30T10:18:04;103048.66;;;10.84;71.07
79527;BME280;68974;47.754;-3.364;2024-01-30T10:20:34;103057.97;;;10.58;72.13
79527;BME280;68974;47.754;-3.364;2024-01-30T10:23:00;103056.63;;;10.42;73.64
79527;BME280;68974;47.754;-3.364;2024-01-30T10:25:26;103060.16;;;10.25;75.02
79527;BME280;68974;47.754;-3.364;2024-01-30T10:27:54;103060.22;;;10.12;76.07
79527;BME280;68974;47.754;-3.364;2024-01-30T10:30:24;103062.38;;;10.03;75.97
79527;BME280;68974;47.754;-3.364;2024-01-30T10:32:49;103068.81;;;9.90;77.26
79527;BME280;68974;47.754;-3.364;2024-01-30T10:35:15;103070.75;;;9.83;78.07
79527;BME280;68974;47.754;-3.364;2024-01-30T10:37:47;103076.09;;;9.72;78.30
79527;BME280;68974;47.754;-3.364;2024-01-30T10:40:13;103077.75;;;9.73;78.82
79527;BME280;68974;47.754;-3.364;2024-01-30T10:42:42;103076.50;;;9.75;78.83
79527;BME280;68974;47.754;-3.364;2024-01-30T10:45:09;103077.16;;;9.71;79.40
79527;BME280;68974;47.754;-3.364;2024-01-30T10:47:35;103079.06;;;9.70;80.25
79527;BME280;68974;47.754;-3.364;2024-01-30T10:50:05;103075.66;;;9.75;80.60
79527;BME280;68974;47.754;-3.364;2024-01-30T10:52:32;103087.19;;;9.90;80.00
79527;BME280;68974;47.754;-3.364;2024-01-30T10:54:58;103084.72;;;10.13;79.77
79527;BME280;68974;47.754;-3.364;2024-01-30T10:57:24;103081.53;;;10.48;78.94
79527;BME280;68974;47.754;-3.364;2024-01-30T10:59:53;103081.78;;;11.14;77.72
79527;BME280;68974;47.754;-3.364;2024-01-30T11:02:21;103083.59;;;12.04;75.48
79527;BME280;68974;47.754;-3.364;2024-01-30T11:04:49;103079.84;;;12.29;70.91
79527;BME280;68974;47.754;-3.364;2024-01-30T11:07:18;103077.66;;;12.84;69.87
79527;BME280;68974;47.754;-3.364;2024-01-30T11:09:59;103081.25;;;13.71;67.75
79527;BME280;68974;47.754;-3.364;2024-01-30T11:12:29;103082.28;;;14.38;63.27
79527;BME280;68974;47.754;-3.364;2024-01-30T11:15:08;103074.00;;;15.48;61.01
79527;BME280;68974;47.754;-3.364;2024-01-30T11:20:22;103073.44;;;16.48;56.84
79527;BME280;68974;47.754;-3.364;2024-01-30T11:22:55;103074.75;;;16.73;55.54
79527;BME280;68974;47.754;-3.364;2024-01-30T11:25:22;103075.59;;;17.10;54.50
79527;BME280;68974;47.754;-3.364;2024-01-30T11:27:53;103071.00;;;18.24;51.44
79527;BME280;68974;47.754;-3.364;2024-01-30T11:35:25;103068.22;;;21.67;40.49
79527;BME280;68974;47.754;-3.364;2024-01-30T11:37:52;103058.22;;;22.03;40.37
79527;BME280;68974;47.754;-3.364;2024-01-30T11:40:19;103053.88;;;21.74;38.63
79527;BME280;68974;47.754;-3.364;2024-01-30T11:42:45;103067.47;;;21.38;38.49
79527;BME280;68974;47.754;-3.364;2024-01-30T11:45:12;103062.44;;;22.20;38.07
79527;BME280;68974;47.754;-3.364;2024-01-30T11:47:38;103062.84;;;22.13;36.68
79527;BME280;68974;47.754;-3.364;2024-01-30T11:50:04;103070.84;;;22.01;37.39
79527;BME280;68974;47.754;-3.364;2024-01-30T11:52:34;103069.56;;;22.82;36.07
79527;BME280;68974;47.754;-3.364;2024-01-30T11:55:00;103076.75;;;22.18;36.34
79527;BME280;68974;47.754;-3.364;2024-01-30T11:57:27;103064.41;;;21.39;38.15
79527;BME280;68974;47.754;-3.364;2024-01-30T11:59:54;103064.44;;;21.34;37.74
79527;BME280;68974;47.754;-3.364;2024-01-30T12:02:19;103059.72;;;21.96;37.59
79527;BME280;68974;47.754;-3.364;2024-01-30T12:04:45;103060.47;;;22.20;36.44
79527;BME280;68974;47.754;-3.364;2024-01-30T12:07:11;103051.66;;;22.13;36.84
79527;BME280;68974;47.754;-3.364;2024-01-30T12:09:36;103054.19;;;21.91;36.46
79527;BME280;68974;47.754;-3.364;2024-01-30T12:12:02;103054.03;;;21.16;37.32
79527;BME280;68974;47.754;-3.364;2024-01-30T12:14:28;103045.66;;;20.87;37.09
79527;BME280;68974;47.754;-3.364;2024-01-30T12:16:54;103051.44;;;21.86;36.21
79527;BME280;68974;47.754;-3.364;2024-01-30T12:19:23;103042.88;;;21.58;37.51
79527;BME280;68974;47.754;-3.364;2024-01-30T12:21:56;103058.91;;;20.77;38.12
79527;BME280;68974;47.754;-3.364;2024-01-30T12:24:25;103052.78;;;20.74;39.35
79527;BME280;68974;47.754;-3.364;2024-01-30T12:26:50;103047.16;;;22.31;36.56
79527;BME280;68974;47.754;-3.364;2024-01-30T12:29:17;103051.03;;;22.48;34.86
79527;BME280;68974;47.754;-3.364;2024-01-30T12:31:42;103049.25;;;21.64;34.31
79527;BME280;68974;47.754;-3.364;2024-01-30T12:34:09;103055.50;;;20.80;34.84
79527;BME280;68974;47.754;-3.364;2024-01-30T12:36:35;103055.38;;;19.14;37.84
79527;BME280;68974;47.754;-3.364;2024-01-30T12:39:01;103058.03;;;17.00;42.26
79527;BME280;68974;47.754;-3.364;2024-01-30T12:41:27;103054.72;;;15.53;45.30
79527;BME280;68974;47.754;-3.364;2024-01-30T12:43:57;103048.31;;;14.93;46.94
79527;BME280;68974;47.754;-3.364;2024-01-30T12:46:27;103047.84;;;15.83;45.15
79527;BME280;68974;47.754;-3.364;2024-01-30T12:48:53;103045.72;;;17.38;41.47